sensor_id;sensor_type;location;lat;lon;timestamp;P1;durP1;ratioP1;P2;durP2;ratioP2
24801;SDS011;12898;50.520;12.152;2023-06-26T00:00:03;11.02;;;7.28;;
24801;SDS011;12898;50.520;12.152;2023-06-26T00:02:30;11.50;;;7.82;;
24801;SDS011;12898;50.520;12.152;2023-06-26T00:04:57;11.32;;;7.15;;
24801;SDS011;12898;50.520;12.152;2023-06-26T00:07:27;10.50;;;7.20;;
24801;SDS011;12898;50.520;12.152;2023-06-26T00:09:54;12.35;;;7.80;;
24801;SDS011;12898;50.520;12.152;2023-06-26T00:12:20;12.68;;;7.80;;
24801;SDS011;12898;50.520;12.152;2023-06-26T00:14:45;12.02;;;7.72;;
24801;SDS011;12898;50.520;12.152;2023-06-26T00:17:11;11.50;;;7.55;;
24801;SDS011;12898;50.520;12.152;2023-06-26T00:19:37;12.02;;;7.30;;
24801;SDS011;12898;50.520;12.152;2023-06-26T00:22:02;12.00;;;8.05;;
24801;SDS011;12898;50.520;12.152;2023-06-26T00:24:28;10.52;;;7.07;;
24801;SDS011;12898;50.520;12.152;2023-06-26T00:26:54;11.50;;;7.72;;
24801;SDS011;12898;50.520;12.152;2023-06-26T00:29:20;11.38;;;7.70;;
24801;SDS011;12898;50.520;12.152;2023-06-26T00:31:45;13.15;;;8.20;;
24801;SDS011;12898;50.520;12.152;2023-06-26T00:34:11;12.68;;;8.27;;
24801;SDS011;12898;50.520;12.152;2023-06-26T00:36:37;12.30;;;8.52;;
24801;SDS011;12898;50.520;12.152;2023-06-26T00:39:02;11.27;;;7.85;;
24801;SDS011;12898;50.520;12.152;2023-06-26T00:41:28;12.38;;;8.80;;
24801;SDS011;12898;50.520;12.152;2023-06-26T00:43:54;14.02;;;8.70;;
24801;SDS011;12898;50.520;12.152;2023-06-26T00:46:20;13.48;;;8.48;;
24801;SDS011;12898;50.520;12.152;2023-06-26T00:48:46;11.70;;;8.00;;
24801;SDS011;12898;50.520;12.152;2023-06-26T00:51:14;13.10;;;8.55;;
24801;SDS011;12898;50.520;12.152;2023-06-26T00:53:40;12.75;;;8.02;;
24801;SDS011;12898;50.520;12.152;2023-06-26T00:56:07;12.13;;;9.00;;
24801;SDS011;12898;50.520;12.152;2023-06-26T00:58:33;11.55;;;8.57;;
24801;SDS011;12898;50.520;12.152;2023-06-26T01:00:59;13.00;;;9.00;;
24801;SDS011;12898;50.520;12.152;2023-06-26T01:03:27;13.48;;;8.73;;
24801;SDS011;12898;50.520;12.152;2023-06-26T01:05:53;13.38;;;9.05;;
24801;SDS011;12898;50.520;12.152;2023-06-26T01:08:21;13.35;;;8.38;;
24801;SDS011;12898;50.520;12.152;2023-06-26T01:10:48;13.30;;;8.40;;
24801;SDS011;12898;50.520;12.152;2023-06-26T01:13:14;11.77;;;7.95;;
24801;SDS011;12898;50.520;12.152;2023-06-26T01:15:41;12.80;;;9.25;;
24801;SDS011;12898;50.520;12.152;2023-06-26T01:18:07;13.88;;;8.48;;
24801;SDS011;12898;50.520;12.152;2023-06-26T01:20:37;13.80;;;8.13;;
24801;SDS011;12898;50.520;12.152;2023-06-26T01:23:12;12.70;;;8.52;;
24801;SDS011;12898;50.520;12.152;2023-06-26T01:28:43;12.77;;;8.68;;
24801;SDS011;12898;50.520;12.152;2023-06-26T01:31:10;13.13;;;8.80;;
24801;SDS011;12898;50.520;12.152;2023-06-26T01:33:37;13.25;;;8.23;;
24801;SDS011;12898;50.520;12.152;2023-06-26T01:36:04;12.00;;;7.95;;
24801;SDS011;12898;50.520;12.152;2023-06-26T01:38:30;12.40;;;8.38;;
24801;SDS011;12898;50.520;12.152;2023-06-26T01:40:55;11.73;;;7.63;;
24801;SDS011;12898;50.520;12.152;2023-06-26T01:43:29;13.40;;;8.40;;
24801;SDS011;12898;50.520;12.152;2023-06-26T01:49:40;12.32;;;8.57;;
24801;SDS011;12898;50.520;12.152;2023-06-26T01:55:03;11.82;;;8.32;;
24801;SDS011;12898;50.520;12.152;2023-06-26T01:57:47;11.27;;;8.00;;
24801;SDS011;12898;50.520;12.152;2023-06-26T02:00:16;13.15;;;8.38;;
24801;SDS011;12898;50.520;12.152;2023-06-26T02:02:44;14.50;;;9.20;;
24801;SDS011;12898;50.520;12.152;2023-06-26T02:05:11;16.30;;;8.43;;
24801;SDS011;12898;50.520;12.152;2023-06-26T02:07:37;12.98;;;8.18;;
24801;SDS011;12898;50.520;12.152;2023-06-26T02:10:03;12.95;;;8.18;;
24801;SDS011;12898;50.520;12.152;2023-06-26T02:12:30;11.45;;;7.60;;
24801;SDS011;12898;50.520;12.152;2023-06-26T02:14:55;11.35;;;7.07;;
24801;SDS011;12898;50.520;12.152;2023-06-26T02:17:21;12.55;;;8.18;;
24801;SDS011;12898;50.520;12.152;2023-06-26T02:19:47;12.50;;;7.50;;
24801;SDS011;12898;50.520;12.152;2023-06-26T02:22:15;11.63;;;7.78;;
24801;SDS011;12898;50.520;12.152;2023-06-26T02:24:44;11.98;;;7.60;;
24801;SDS011;12898;50.520;12.152;2023-06-26T02:27:10;13.93;;;7.95;;
24801;SDS011;12898;50.520;12.152;2023-06-26T02:29:36;10.27;;;6.88;;
24801;SDS011;12898;50.520;12.152;2023-06-26T02:32:03;11.60;;;7.85;;
24801;SDS011;12898;50.520;12.152;2023-06-26T02:34:29;11.80;;;8.00;;
24801;SDS011;12898;50.520;12.152;2023-06-26T02:36:55;12.68;;;8.20;;
24801;SDS011;12898;50.520;12.152;2023-06-26T02:39:21;11.68;;;7.22;;
24801;SDS011;12898;50.520;12.152;2023-06-26T02:41:47;10.38;;;7.15;;
24801;SDS011;12898;50.520;12.152;2023-06-26T02:44:13;11.32;;;7.75;;
24801;SDS011;12898;50.520;12.152;2023-06-26T02:46:39;14.43;;;7.90;;
24801;SDS011;12898;50.520;12.152;2023-06-26T02:49:05;12.57;;;7.75;;
24801;SDS011;12898;50.520;12.152;2023-06-26T02:51:32;11.70;;;7.47;;
24801;SDS011;12898;50.520;12.152;2023-06-26T02:53:59;13.95;;;7.32;;
24801;SDS011;12898;50.520;12.152;2023-06-26T02:56:25;11.18;;;7.63;;
24801;SDS011;12898;50.520;12.152;2023-06-26T02:58:55;11.75;;;7.53;;
24801;SDS011;12898;50.520;12.152;2023-06-26T03:01:21;11.10;;;6.90;;
24801;SDS011;12898;50.520;12.152;2023-06-26T03:03:47;12.00;;;7.72;;
24801;SDS011;12898;50.520;12.152;2023-06-26T03:06:13;10.77;;;7.40;;
24801;SDS011;12898;50.520;12.152;2023-06-26T03:08:40;13.65;;;7.75;;
24801;SDS011;12898;50.520;12.152;2023-06-26T03:11:06;10.55;;;7.30;;
24801;SDS011;12898;50.520;12.152;2023-06-26T03:13:33;11.23;;;7.88;;
24801;SDS011;12898;50.520;12.152;2023-06-26T03:16:00;12.15;;;7.72;;
24801;SDS011;12898;50.520;12.152;2023-06-26T03:18:26;11.35;;;7.05;;
24801;SDS011;12898;50.520;12.152;2023-06-26T03:20:52;11.25;;;7.78;;
24801;SDS011;12898;50.520;12.152;2023-06-26T03:23:21;12.50;;;7.90;;
24801;SDS011;12898;50.520;12.152;2023-06-26T03:25:48;11.75;;;7.35;;
24801;SDS011;12898;50.520;12.152;2023-06-26T03:28:14;12.57;;;7.55;;
24801;SDS011;12898;50.520;12.152;2023-06-26T03:30:40;11.13;;;7.07;;
24801;SDS011;12898;50.520;12.152;2023-06-26T03:33:06;11.05;;;7.47;;
24801;SDS011;12898;50.520;12.152;2023-06-26T03:35:32;10.90;;;7.32;;
24801;SDS011;12898;50.520;12.152;2023-06-26T03:37:58;11.43;;;7.15;;
24801;SDS011;12898;50.520;12.152;2023-06-26T03:40:24;12.30;;;7.57;;
24801;SDS011;12898;50.520;12.152;2023-06-26T03:42:49;12.57;;;7.80;;
24801;SDS011;12898;50.520;12.152;2023-06-26T03:45:15;16.83;;;7.80;;
24801;SDS011;12898;50.520;12.152;2023-06-26T03:47:41;16.75;;;7.55;;
24801;SDS011;12898;50.520;12.152;2023-06-26T03:50:06;12.23;;;7.57;;
24801;SDS011;12898;50.520;12.152;2023-06-26T03:52:33;11.73;;;7.45;;
24801;SDS011;12898;50.520;12.152;2023-06-26T03:54:58;12.27;;;8.10;;
24801;SDS011;12898;50.520;12.152;2023-06-26T03:57:25;9.90;;;6.80;;
24801;SDS011;12898;50.520;12.152;2023-06-26T03:59:51;11.10;;;6.90;;
24801;SDS011;12898;50.520;12.152;2023-06-26T04:02:18;12.07;;;7.68;;
24801;SDS011;12898;50.520;12.152;2023-06-26T04:04:43;12.10;;;7.40;;
24801;SDS011;12898;50.520;12.152;2023-06-26T04:07:09;11.15;;;7.55;;
24801;SDS011;12898;50.520;12.152;2023-06-26T04:09:35;10.48;;;7.00;;
24801;SDS011;12898;50.520;12.152;2023-06-26T04:12:01;10.90;;;7.07;;
24801;SDS011;12898;50.520;12.152;2023-06-26T04:14:28;11.57;;;7.32;;
24801;SDS011;12898;50.520;12.152;2023-06-26T04:16:54;11.15;;;6.93;;
24801;SDS011;12898;50.520;12.152;2023-06-26T04:19:19;10.88;;;7.00;;
24801;SDS011;12898;50.520;12.152;2023-06-26T04:21:45;12.32;;;7.35;;
24801;SDS011;12898;50.520;12.152;2023-06-26T04:24:11;11.43;;;7.32;;
24801;SDS011;12898;50.520;12.152;2023-06-26T04:26:37;12.75;;;7.35;;
24801;SDS011;12898;50.520;12.152;2023-06-26T04:29:05;12.75;;;7.03;;
24801;SDS011;12898;50.520;12.152;2023-06-26T04:31:32;12.98;;;7.88;;
24801;SDS011;12898;50.520;12.152;2023-06-26T04:33:58;14.27;;;7.20;;
24801;SDS011;12898;50.520;12.152;2023-06-26T04:36:24;10.95;;;7.28;;
24801;SDS011;12898;50.520;12.152;2023-06-26T04:38:53;11.70;;;6.80;;
24801;SDS011;12898;50.520;12.152;2023-06-26T04:41:20;10.32;;;6.90;;
24801;SDS011;12898;50.520;12.152;2023-06-26T04:43:46;12.13;;;7.20;;
24801;SDS011;12898;50.520;12.152;2023-06-26T04:46:12;12.00;;;7.47;;
24801;SDS011;12898;50.520;12.152;2023-06-26T04:48:37;12.35;;;6.80;;
24801;SDS011;12898;50.520;12.152;2023-06-26T04:51:03;12.18;;;6.68;;
24801;SDS011;12898;50.520;12.152;2023-06-26T04:53:29;12.00;;;7.00;;
24801;SDS011;12898;50.520;12.152;2023-06-26T04:55:54;13.00;;;7.32;;
24801;SDS011;12898;50.520;12.152;2023-06-26T04:58:20;13.10;;;7.72;;
24801;SDS011;12898;50.520;12.152;2023-06-26T05:00:46;17.80;;;7.40;;
24801;SDS011;12898;50.520;12.152;2023-06-26T05:03:12;13.73;;;7.30;;
24801;SDS011;12898;50.520;12.152;2023-06-26T05:05:43;10.80;;;6.50;;
24801;SDS011;12898;50.520;12.152;2023-06-26T05:08:24;12.73;;;6.78;;
24801;SDS011;12898;50.520;12.152;2023-06-26T05:10:54;11.73;;;7.35;;
24801;SDS011;12898;50.520;12.152;2023-06-26T05:13:23;18.55;;;7.20;;
24801;SDS011;12898;50.520;12.152;2023-06-26T05:15:52;13.93;;;7.20;;
24801;SDS011;12898;50.520;12.152;2023-06-26T05:18:18;10.65;;;6.60;;
24801;SDS011;12898;50.520;12.152;2023-06-26T05:20:44;12.65;;;7.25;;
24801;SDS011;12898;50.520;12.152;2023-06-26T05:23:11;12.02;;;6.53;;
24801;SDS011;12898;50.520;12.152;2023-06-26T05:25:37;11.85;;;6.78;;
24801;SDS011;12898;50.520;12.152;2023-06-26T05:28:04;11.55;;;6.68;;
24801;SDS011;12898;50.520;12.152;2023-06-26T05:30:30;11.27;;;6.65;;
24801;SDS011;12898;50.520;12.152;2023-06-26T05:32:59;10.32;;;7.13;;
24801;SDS011;12898;50.520;12.152;2023-06-26T05:35:27;8.80;;;5.88;;
24801;SDS011;12898;50.520;12.152;2023-06-26T05:37:55;14.93;;;7.07;;
24801;SDS011;12898;50.520;12.152;2023-06-26T05:40:22;11.35;;;6.85;;
24801;SDS011;12898;50.520;12.152;2023-06-26T05:42:48;11.65;;;6.82;;
24801;SDS011;12898;50.520;12.152;2023-06-26T05:45:15;10.95;;;6.82;;
24801;SDS011;12898;50.520;12.152;2023-06-26T05:47:41;11.77;;;6.47;;
24801;SDS011;12898;50.520;12.152;2023-06-26T05:50:08;12.57;;;7.18;;
24801;SDS011;12898;50.520;12.152;2023-06-26T05:52:35;10.70;;;6.72;;
24801;SDS011;12898;50.520;12.152;2023-06-26T05:55:01;11.15;;;6.53;;
24801;SDS011;12898;50.520;12.152;2023-06-26T05:57:28;13.27;;;6.60;;
24801;SDS011;12898;50.520;12.152;2023-06-26T05:59:55;10.52;;;6.88;;
24801;SDS011;12898;50.520;12.152;2023-06-26T06:02:22;10.60;;;6.43;;
24801;SDS011;12898;50.520;12.152;2023-06-26T06:04:48;9.10;;;6.40;;
24801;SDS011;12898;50.520;12.152;2023-06-26T06:07:13;9.75;;;5.70;;
24801;SDS011;12898;50.520;12.152;2023-06-26T06:09:39;10.40;;;6.15;;
24801;SDS011;12898;50.520;12.152;2023-06-26T06:12:05;9.15;;;5.82;;
24801;SDS011;12898;50.520;12.152;2023-06-26T06:14:33;11.05;;;7.03;;
24801;SDS011;12898;50.520;12.152;2023-06-26T06:16:59;10.85;;;6.53;;
24801;SDS011;12898;50.520;12.152;2023-06-26T06:19:25;10.32;;;6.35;;
24801;SDS011;12898;50.520;12.152;2023-06-26T06:21:50;13.27;;;6.45;;
24801;SDS011;12898;50.520;12.152;2023-06-26T06:24:16;13.73;;;6.70;;
24801;SDS011;12898;50.520;12.152;2023-06-26T06:26:42;11.77;;;6.45;;
24801;SDS011;12898;50.520;12.152;2023-06-26T06:29:08;11.07;;;6.88;;
24801;SDS011;12898;50.520;12.152;2023-06-26T06:31:34;10.90;;;6.80;;
24801;SDS011;12898;50.520;12.152;2023-06-26T06:33:59;12.65;;;6.90;;
24801;SDS011;12898;50.520;12.152;2023-06-26T06:36:25;11.15;;;6.53;;
24801;SDS011;12898;50.520;12.152;2023-06-26T06:38:51;9.50;;;6.63;;
24801;SDS011;12898;50.520;12.152;2023-06-26T06:41:16;12.18;;;6.75;;
24801;SDS011;12898;50.520;12.152;2023-06-26T06:43:42;10.13;;;6.22;;
24801;SDS011;12898;50.520;12.152;2023-06-26T06:46:08;10.90;;;6.80;;
24801;SDS011;12898;50.520;12.152;2023-06-26T06:48:34;12.05;;;6.13;;
24801;SDS011;12898;50.520;12.152;2023-06-26T06:51:00;12.73;;;7.10;;
24801;SDS011;12898;50.520;12.152;2023-06-26T06:53:25;10.50;;;6.97;;
24801;SDS011;12898;50.520;12.152;2023-06-26T06:55:51;9.55;;;6.45;;
24801;SDS011;12898;50.520;12.152;2023-06-26T06:58:17;10.93;;;6.93;;
24801;SDS011;12898;50.520;12.152;2023-06-26T07:00:44;11.02;;;6.93;;
24801;SDS011;12898;50.520;12.152;2023-06-26T07:03:10;11.55;;;6.65;;
24801;SDS011;12898;50.520;12.152;2023-06-26T07:05:36;11.15;;;6.63;;
24801;SDS011;12898;50.520;12.152;2023-06-26T07:08:02;10.82;;;6.43;;
24801;SDS011;12898;50.520;12.152;2023-06-26T07:10:28;10.00;;;6.47;;
24801;SDS011;12898;50.520;12.152;2023-06-26T07:12:54;10.52;;;6.43;;
24801;SDS011;12898;50.520;12.152;2023-06-26T07:15:20;13.75;;;7.10;;
24801;SDS011;12898;50.520;12.152;2023-06-26T07:17:45;10.68;;;6.40;;
24801;SDS011;12898;50.520;12.152;2023-06-26T07:20:11;10.85;;;6.53;;
24801;SDS011;12898;50.520;12.152;2023-06-26T07:22:40;10.68;;;7.00;;
24801;SDS011;12898;50.520;12.152;2023-06-26T07:25:07;17.45;;;7.15;;
24801;SDS011;12898;50.520;12.152;2023-06-26T07:27:39;16.10;;;6.03;;
24801;SDS011;12898;50.520;12.152;2023-06-26T07:30:06;9.73;;;6.10;;
24801;SDS011;12898;50.520;12.152;2023-06-26T07:32:34;11.50;;;6.20;;
24801;SDS011;12898;50.520;12.152;2023-06-26T07:35:00;8.55;;;6.32;;
24801;SDS011;12898;50.520;12.152;2023-06-26T07:37:25;10.02;;;6.05;;
24801;SDS011;12898;50.520;12.152;2023-06-26T07:39:51;10.55;;;6.50;;
24801;SDS011;12898;50.520;12.152;2023-06-26T07:42:17;9.00;;;5.82;;
24801;SDS011;12898;50.520;12.152;2023-06-26T07:44:43;12.68;;;6.85;;
24801;SDS011;12898;50.520;12.152;2023-06-26T07:47:09;11.85;;;6.60;;
24801;SDS011;12898;50.520;12.152;2023-06-26T07:49:35;11.20;;;6.15;;
24801;SDS011;12898;50.520;12.152;2023-06-26T07:52:00;10.25;;;6.22;;
24801;SDS011;12898;50.520;12.152;2023-06-26T07:54:27;11.90;;;6.40;;
24801;SDS011;12898;50.520;12.152;2023-06-26T07:56:56;10.35;;;5.95;;
24801;SDS011;12898;50.520;12.152;2023-06-26T07:59:25;12.43;;;6.60;;
24801;SDS011;12898;50.520;12.152;2023-06-26T08:01:52;12.25;;;6.38;;
24801;SDS011;12898;50.520;12.152;2023-06-26T08:04:20;11.93;;;6.30;;
24801;SDS011;12898;50.520;12.152;2023-06-26T08:06:48;10.68;;;6.40;;
24801;SDS011;12898;50.520;12.152;2023-06-26T08:09:15;11.38;;;6.07;;
24801;SDS011;12898;50.520;12.152;2023-06-26T08:11:43;10.25;;;6.53;;
24801;SDS011;12898;50.520;12.152;2023-06-26T08:14:09;10.38;;;7.20;;
24801;SDS011;12898;50.520;12.152;2023-06-26T08:16:37;11.63;;;6.80;;
24801;SDS011;12898;50.520;12.152;2023-06-26T08:19:06;10.75;;;7.05;;
24801;SDS011;12898;50.520;12.152;2023-06-26T08:21:32;9.70;;;6.65;;
24801;SDS011;12898;50.520;12.152;2023-06-26T08:23:58;9.40;;;6.45;;
24801;SDS011;12898;50.520;12.152;2023-06-26T08:26:23;11.88;;;6.70;;
24801;SDS011;12898;50.520;12.152;2023-06-26T08:28:49;10.35;;;6.75;;
24801;SDS011;12898;50.520;12.152;2023-06-26T08:31:15;9.38;;;6.35;;
24801;SDS011;12898;50.520;12.152;2023-06-26T08:33:42;10.43;;;6.85;;
24801;SDS011;12898;50.520;12.152;2023-06-26T08:36:08;9.75;;;6.78;;
24801;SDS011;12898;50.520;12.152;2023-06-26T08:38:33;10.00;;;6.53;;
24801;SDS011;12898;50.520;12.152;2023-06-26T08:40:59;10.70;;;6.60;;
24801;SDS011;12898;50.520;12.152;2023-06-26T08:43:25;10.23;;;6.85;;
24801;SDS011;12898;50.520;12.152;2023-06-26T08:45:53;10.93;;;6.72;;
24801;SDS011;12898;50.520;12.152;2023-06-26T08:48:18;10.63;;;6.28;;
24801;SDS011;12898;50.520;12.152;2023-06-26T08:50:47;10.57;;;6.40;;
24801;SDS011;12898;50.520;12.152;2023-06-26T08:53:23;10.07;;;6.00;;
24801;SDS011;12898;50.520;12.152;2023-06-26T08:56:00;9.43;;;6.40;;
24801;SDS011;12898;50.520;12.152;2023-06-26T08:58:27;11.90;;;6.70;;
24801;SDS011;12898;50.520;12.152;2023-06-26T09:00:52;9.13;;;6.57;;
24801;SDS011;12898;50.520;12.152;2023-06-26T09:03:20;10.25;;;6.30;;
24801;SDS011;12898;50.520;12.152;2023-06-26T09:05:46;9.43;;;6.45;;
24801;SDS011;12898;50.520;12.152;2023-06-26T09:08:12;8.82;;;6.13;;
24801;SDS011;12898;50.520;12.152;2023-06-26T09:10:38;9.13;;;6.20;;
24801;SDS011;12898;50.520;12.152;2023-06-26T09:13:04;9.88;;;6.30;;
24801;SDS011;12898;50.520;12.152;2023-06-26T09:15:37;9.95;;;6.47;;
24801;SDS011;12898;50.520;12.152;2023-06-26T09:18:06;10.32;;;6.85;;
24801;SDS011;12898;50.520;12.152;2023-06-26T09:20:32;10.13;;;6.70;;
24801;SDS011;12898;50.520;12.152;2023-06-26T09:22:58;10.23;;;6.47;;
24801;SDS011;12898;50.520;12.152;2023-06-26T09:25:25;9.60;;;6.43;;
24801;SDS011;12898;50.520;12.152;2023-06-26T09:27:51;9.13;;;6.35;;
24801;SDS011;12898;50.520;12.152;2023-06-26T09:30:18;10.90;;;6.75;;
24801;SDS011;12898;50.520;12.152;2023-06-26T09:32:44;10.05;;;6.95;;
24801;SDS011;12898;50.520;12.152;2023-06-26T09:35:10;11.43;;;6.53;;
24801;SDS011;12898;50.520;12.152;2023-06-26T09:37:36;9.20;;;6.60;;
24801;SDS011;12898;50.520;12.152;2023-06-26T09:40:03;9.30;;;6.60;;
24801;SDS011;12898;50.520;12.152;2023-06-26T09:42:29;9.57;;;6.65;;
24801;SDS011;12898;50.520;12.152;2023-06-26T09:44:56;8.90;;;6.22;;
24801;SDS011;12898;50.520;12.152;2023-06-26T09:47:22;9.65;;;6.38;;
24801;SDS011;12898;50.520;12.152;2023-06-26T09:49:49;12.35;;;6.50;;
24801;SDS011;12898;50.520;12.152;2023-06-26T09:52:16;9.90;;;6.40;;
24801;SDS011;12898;50.520;12.152;2023-06-26T09:54:43;8.88;;;6.05;;
24801;SDS011;12898;50.520;12.152;2023-06-26T09:57:10;8.35;;;6.20;;
24801;SDS011;12898;50.520;12.152;2023-06-26T09:59:38;9.32;;;6.50;;
24801;SDS011;12898;50.520;12.152;2023-06-26T10:02:05;9.35;;;6.10;;
24801;SDS011;12898;50.520;12.152;2023-06-26T10:04:31;7.90;;;5.45;;
24801;SDS011;12898;50.520;12.152;2023-06-26T10:06:58;8.32;;;6.00;;
24801;SDS011;12898;50.520;12.152;2023-06-26T10:09:30;9.77;;;5.75;;
24801;SDS011;12898;50.520;12.152;2023-06-26T10:11:57;7.85;;;5.70;;
24801;SDS011;12898;50.520;12.152;2023-06-26T10:14:38;7.13;;;5.72;;
24801;SDS011;12898;50.520;12.152;2023-06-26T10:17:10;6.82;;;5.20;;
24801;SDS011;12898;50.520;12.152;2023-06-26T10:19:42;7.90;;;6.05;;
24801;SDS011;12898;50.520;12.152;2023-06-26T10:22:09;9.10;;;5.75;;
24801;SDS011;12898;50.520;12.152;2023-06-26T10:24:39;7.50;;;5.65;;
24801;SDS011;12898;50.520;12.152;2023-06-26T10:29:53;9.07;;;6.07;;
24801;SDS011;12898;50.520;12.152;2023-06-26T10:32:23;8.35;;;5.82;;
24801;SDS011;12898;50.520;12.152;2023-06-26T10:34:51;12.32;;;6.18;;
24801;SDS011;12898;50.520;12.152;2023-06-26T10:37:17;8.90;;;5.93;;
24801;SDS011;12898;50.520;12.152;2023-06-26T10:39:50;8.60;;;6.30;;
24801;SDS011;12898;50.520;12.152;2023-06-26T10:42:19;11.40;;;6.68;;
24801;SDS011;12898;50.520;12.152;2023-06-26T10:45:08;9.07;;;5.95;;
24801;SDS011;12898;50.520;12.152;2023-06-26T10:47:41;9.95;;;6.93;;
24801;SDS011;12898;50.520;12.152;2023-06-26T10:55:56;10.88;;;6.20;;
24801;SDS011;12898;50.520;12.152;2023-06-26T10:58:32;8.65;;;6.03;;
24801;SDS011;12898;50.520;12.152;2023-06-26T11:03:37;10.45;;;6.25;;
24801;SDS011;12898;50.520;12.152;2023-06-26T11:09:11;9.07;;;6.30;;
24801;SDS011;12898;50.520;12.152;2023-06-26T11:14:20;8.70;;;6.30;;
24801;SDS011;12898;50.520;12.152;2023-06-26T11:16:47;10.13;;;6.22;;
24801;SDS011;12898;50.520;12.152;2023-06-26T11:19:14;8.25;;;6.15;;
24801;SDS011;12898;50.520;12.152;2023-06-26T11:21:42;8.95;;;6.18;;
24801;SDS011;12898;50.520;12.152;2023-06-26T11:24:08;8.80;;;6.35;;
24801;SDS011;12898;50.520;12.152;2023-06-26T11:26:42;9.02;;;6.10;;
24801;SDS011;12898;50.520;12.152;2023-06-26T11:29:09;9.50;;;6.10;;
24801;SDS011;12898;50.520;12.152;2023-06-26T11:31:37;10.07;;;5.80;;
24801;SDS011;12898;50.520;12.152;2023-06-26T11:34:10;9.85;;;6.45;;
24801;SDS011;12898;50.520;12.152;2023-06-26T11:36:38;8.02;;;6.05;;
24801;SDS011;12898;50.520;12.152;2023-06-26T11:39:07;10.02;;;6.28;;
24801;SDS011;12898;50.520;12.152;2023-06-26T11:41:33;8.65;;;6.22;;
24801;SDS011;12898;50.520;12.152;2023-06-26T11:46:29;8.18;;;6.15;;
24801;SDS011;12898;50.520;12.152;2023-06-26T11:48:56;10.23;;;6.50;;
24801;SDS011;12898;50.520;12.152;2023-06-26T11:51:22;9.73;;;6.43;;
24801;SDS011;12898;50.520;12.152;2023-06-26T11:53:48;8.50;;;5.53;;
24801;SDS011;12898;50.520;12.152;2023-06-26T11:56:15;9.35;;;6.18;;
24801;SDS011;12898;50.520;12.152;2023-06-26T11:58:55;10.45;;;6.88;;
24801;SDS011;12898;50.520;12.152;2023-06-26T12:01:31;9.82;;;6.40;;
24801;SDS011;12898;50.520;12.152;2023-06-26T12:04:06;9.77;;;6.47;;
24801;SDS011;12898;50.520;12.152;2023-06-26T12:06:35;9.13;;;5.65;;
24801;SDS011;12898;50.520;12.152;2023-06-26T12:09:07;8.68;;;6.00;;
24801;SDS011;12898;50.520;12.152;2023-06-26T12:11:36;9.50;;;5.82;;
24801;SDS011;12898;50.520;12.152;2023-06-26T12:14:05;8.43;;;5.68;;
24801;SDS011;12898;50.520;12.152;2023-06-26T12:16:33;11.48;;;6.40;;
24801;SDS011;12898;50.520;12.152;2023-06-26T12:19:00;23.67;;;6.60;;
24801;SDS011;12898;50.520;12.152;2023-06-26T12:24:01;7.95;;;5.88;;
24801;SDS011;12898;50.520;12.152;2023-06-26T12:26:28;8.30;;;5.88;;
24801;SDS011;12898;50.520;12.152;2023-06-26T12:29:10;8.73;;;6.07;;
24801;SDS011;12898;50.520;12.152;2023-06-26T12:31:44;9.02;;;5.93;;
24801;SDS011;12898;50.520;12.152;2023-06-26T12:34:14;10.48;;;6.20;;
24801;SDS011;12898;50.520;12.152;2023-06-26T12:36:48;10.73;;;6.47;;
24801;SDS011;12898;50.520;12.152;2023-06-26T12:39:16;8.80;;;6.18;;
24801;SDS011;12898;50.520;12.152;2023-06-26T12:41:52;8.20;;;6.35;;
24801;SDS011;12898;50.520;12.152;2023-06-26T12:44:27;7.25;;;5.13;;
24801;SDS011;12898;50.520;12.152;2023-06-26T12:46:56;8.40;;;5.68;;
24801;SDS011;12898;50.520;12.152;2023-06-26T12:51:59;8.25;;;5.85;;
24801;SDS011;12898;50.520;12.152;2023-06-26T12:54:26;9.75;;;6.55;;
24801;SDS011;12898;50.520;12.152;2023-06-26T12:56:53;8.18;;;5.75;;
24801;SDS011;12898;50.520;12.152;2023-06-26T12:59:19;9.13;;;5.70;;
24801;SDS011;12898;50.520;12.152;2023-06-26T13:01:46;9.18;;;5.40;;
24801;SDS011;12898;50.520;12.152;2023-06-26T13:04:12;9.82;;;6.18;;
24801;SDS011;12898;50.520;12.152;2023-06-26T13:06:37;10.63;;;6.13;;
24801;SDS011;12898;50.520;12.152;2023-06-26T13:09:03;9.07;;;6.13;;
24801;SDS011;12898;50.520;12.152;2023-06-26T13:11:29;8.57;;;6.05;;
24801;SDS011;12898;50.520;12.152;2023-06-26T13:13:56;10.85;;;6.22;;
24801;SDS011;12898;50.520;12.152;2023-06-26T13:16:22;8.88;;;6.15;;
24801;SDS011;12898;50.520;12.152;2023-06-26T13:18:48;9.85;;;6.20;;
24801;SDS011;12898;50.520;12.152;2023-06-26T13:21:14;11.18;;;6.18;;
24801;SDS011;12898;50.520;12.152;2023-06-26T13:23:41;10.65;;;6.25;;
24801;SDS011;12898;50.520;12.152;2023-06-26T13:26:07;8.05;;;6.18;;
24801;SDS011;12898;50.520;12.152;2023-06-26T13:28:32;8.25;;;5.57;;
24801;SDS011;12898;50.520;12.152;2023-06-26T13:30:58;8.68;;;5.55;;
24801;SDS011;12898;50.520;12.152;2023-06-26T13:33:24;7.65;;;5.65;;
24801;SDS011;12898;50.520;12.152;2023-06-26T13:35:52;7.38;;;5.40;;
24801;SDS011;12898;50.520;12.152;2023-06-26T13:38:19;7.50;;;5.47;;
24801;SDS011;12898;50.520;12.152;2023-06-26T13:40:52;9.60;;;6.18;;
24801;SDS011;12898;50.520;12.152;2023-06-26T13:43:25;11.05;;;5.97;;
24801;SDS011;12898;50.520;12.152;2023-06-26T13:45:52;9.45;;;5.72;;
24801;SDS011;12898;50.520;12.152;2023-06-26T13:48:19;8.48;;;6.40;;
24801;SDS011;12898;50.520;12.152;2023-06-26T13:50:45;9.43;;;6.10;;
24801;SDS011;12898;50.520;12.152;2023-06-26T13:53:12;8.75;;;6.38;;
24801;SDS011;12898;50.520;12.152;2023-06-26T13:55:38;9.82;;;6.13;;
24801;SDS011;12898;50.520;12.152;2023-06-26T13:58:05;11.32;;;6.65;;
24801;SDS011;12898;50.520;12.152;2023-06-26T14:00:32;11.10;;;6.60;;
24801;SDS011;12898;50.520;12.152;2023-06-26T14:03:01;8.98;;;6.20;;
24801;SDS011;12898;50.520;12.152;2023-06-26T14:05:31;10.15;;;6.90;;
24801;SDS011;12898;50.520;12.152;2023-06-26T14:07:58;8.55;;;6.30;;
24801;SDS011;12898;50.520;12.152;2023-06-26T14:10:23;12.02;;;6.70;;
24801;SDS011;12898;50.520;12.152;2023-06-26T14:12:50;7.97;;;6.47;;
24801;SDS011;12898;50.520;12.152;2023-06-26T14:15:16;9.48;;;6.63;;
24801;SDS011;12898;50.520;12.152;2023-06-26T14:17:42;11.27;;;7.18;;
24801;SDS011;12898;50.520;12.152;2023-06-26T14:20:08;10.25;;;6.82;;
24801;SDS011;12898;50.520;12.152;2023-06-26T14:22:37;9.73;;;6.78;;
24801;SDS011;12898;50.520;12.152;2023-06-26T14:25:07;10.77;;;7.95;;
24801;SDS011;12898;50.520;12.152;2023-06-26T14:27:37;9.63;;;6.93;;
24801;SDS011;12898;50.520;12.152;2023-06-26T14:30:04;10.35;;;6.85;;
24801;SDS011;12898;50.520;12.152;2023-06-26T14:32:31;11.27;;;6.60;;
24801;SDS011;12898;50.520;12.152;2023-06-26T14:34:56;9.88;;;6.65;;
24801;SDS011;12898;50.520;12.152;2023-06-26T14:37:23;9.95;;;7.10;;
24801;SDS011;12898;50.520;12.152;2023-06-26T14:39:50;9.80;;;7.10;;
24801;SDS011;12898;50.520;12.152;2023-06-26T14:42:16;10.00;;;6.97;;
24801;SDS011;12898;50.520;12.152;2023-06-26T14:44:42;10.82;;;6.40;;
24801;SDS011;12898;50.520;12.152;2023-06-26T14:47:07;11.73;;;6.45;;
24801;SDS011;12898;50.520;12.152;2023-06-26T14:49:33;9.63;;;6.70;;
24801;SDS011;12898;50.520;12.152;2023-06-26T14:51:59;12.63;;;6.85;;
24801;SDS011;12898;50.520;12.152;2023-06-26T14:54:25;9.10;;;6.40;;
24801;SDS011;12898;50.520;12.152;2023-06-26T14:56:50;9.10;;;6.38;;
24801;SDS011;12898;50.520;12.152;2023-06-26T14:59:16;11.05;;;7.13;;